createdAt,value
2016-07-22T00:00:25.995Z,99.99
2016-07-22T00:00:55.297Z,99.99
2016-07-22T00:01:26.024Z,99.99
2016-07-22T00:01:56.037Z,99.99
2016-07-22T00:02:26.052Z,99.99
2016-07-22T00:02:55.366Z,99.99
2016-07-22T00:03:26.086Z,99.99
2016-07-22T00:03:56.093Z,99.99
2016-07-22T00:04:25.416Z,99.99
2016-07-22T00:04:56.142Z,99.99
2016-07-22T00:05:26.152Z,99.99
2016-07-22T00:05:56.177Z,99.99
2016-07-22T00:06:26.193Z,99.99
2016-07-22T00:06:56.198Z,99.99
2016-07-22T00:07:26.213Z,99.99
2016-07-22T00:07:55.526Z,99.99
2016-07-22T00:08:25.542Z,99.99
2016-07-22T00:08:56.258Z,99.99
2016-07-22T00:09:26.279Z,99.99
2016-07-22T00:09:56.286Z,99.99
2016-07-22T00:10:26.302Z,99.99
2016-07-22T00:10:56.323Z,99.99
2016-07-22T00:11:26.339Z,99.99
2016-07-22T00:11:56.354Z,99.99
2016-07-22T00:12:26.378Z,99.99
2016-07-22T00:12:56.385Z,99.99
2016-07-22T00:13:26.401Z,99.99
2016-07-22T00:13:56.425Z,99.99
2016-07-22T00:14:26.436Z,99.99
2016-07-22T00:14:56.446Z,99.99
2016-07-22T00:15:26.455Z,99.99
2016-07-22T00:15:55.770Z,99.99
2016-07-22T00:16:26.503Z,99.99
2016-07-22T00:16:56.512Z,99.99
2016-07-22T00:17:26.520Z,99.99
2016-07-22T00:17:55.831Z,99.99
2016-07-22T00:18:26.563Z,99.99
2016-07-22T00:18:56.573Z,99.99
2016-07-22T00:19:25.889Z,99.99
2016-07-22T00:19:56.603Z,99.99
2016-07-22T00:20:26.634Z,99.99
2016-07-22T00:20:56.633Z,99.99
2016-07-22T00:21:26.653Z,99.99
2016-07-22T00:21:55.964Z,99.99
2016-07-22T00:22:26.679Z,99.99
2016-07-22T00:22:56.697Z,99.99
2016-07-22T00:23:26.719Z,99.99
2016-07-22T00:23:56.731Z,99.99
2016-07-22T00:24:26.740Z,99.99
2016-07-22T00:24:56.754Z,99.99
2016-07-22T00:25:26.764Z,99.99
2016-07-22T00:25:56.083Z,99.99
2016-07-22T00:26:26.805Z,99.99
2016-07-22T00:26:56.817Z,99.99
2016-07-22T00:27:26.845Z,99.99
2016-07-22T00:27:56.151Z,99.99
2016-07-22T00:28:26.865Z,99.99
2016-07-22T00:28:56.887Z,99.99
2016-07-22T00:29:26.903Z,99.99
2016-07-22T00:29:56.914Z,99.99
2016-07-22T00:30:26.222Z,99.99
2016-07-22T00:30:56.944Z,99.99
2016-07-22T00:31:26.961Z,99.99
2016-07-22T00:31:56.977Z,99.99
2016-07-22T00:32:27.000Z,99.99
2016-07-22T00:32:57.010Z,99.99
2016-07-22T00:33:26.309Z,99.99
2016-07-22T00:33:57.034Z,99.99
2016-07-22T00:34:27.076Z,99.99
2016-07-22T00:34:56.360Z,99.99
2016-07-22T00:35:27.087Z,99.99
2016-07-22T00:35:57.101Z,99.99
2016-07-22T00:36:25.702Z,99.99
2016-07-22T00:36:56.423Z,99.99
2016-07-22T00:37:27.148Z,99.99
2016-07-22T00:37:57.160Z,99.99
2016-07-22T00:38:27.181Z,99.99
2016-07-22T00:38:56.487Z,99.99
2016-07-22T00:39:26.504Z,99.99
2016-07-22T00:39:57.222Z,99.99
2016-07-22T00:40:26.534Z,99.99
2016-07-22T00:40:55.845Z,99.99
2016-07-22T00:41:26.566Z,99.99
2016-07-22T00:41:57.287Z,99.99
2016-07-22T00:42:27.296Z,99.99
2016-07-22T00:42:57.315Z,99.99
2016-07-22T00:43:27.335Z,99.99
2016-07-22T00:43:56.639Z,99.99
2016-07-22T00:44:27.360Z,99.99
2016-07-22T00:44:57.376Z,99.99
2016-07-22T00:45:27.397Z,99.99
2016-07-22T00:45:57.419Z,99.99
2016-07-22T00:46:27.436Z,99.99
2016-07-22T00:46:56.031Z,99.99
2016-07-22T00:47:26.750Z,99.99
2016-07-22T00:47:56.063Z,99.99
2016-07-22T00:48:27.488Z,99.99
2016-07-22T00:48:57.502Z,99.99
2016-07-22T00:49:27.526Z,99.99
2016-07-22T00:49:57.537Z,99.99
2016-07-22T00:50:27.550Z,99.99
2016-07-22T00:50:57.568Z,99.99
2016-07-22T00:51:27.596Z,99.99
2016-07-22T00:51:56.902Z,99.99
2016-07-22T00:52:27.617Z,99.99
2016-07-22T00:52:57.629Z,99.99
2016-07-22T00:53:27.642Z,99.99
2016-07-22T00:53:57.660Z,99.99
2016-07-22T00:54:27.672Z,99.99
2016-07-22T00:54:57.698Z,99.99
2016-07-22T00:55:26.999Z,99.99
2016-07-22T00:55:57.732Z,99.99
2016-07-22T00:56:27.737Z,99.99
2016-07-22T00:56:57.753Z,99.99
2016-07-22T00:57:27.769Z,99.99
2016-07-22T00:57:57.783Z,99.99
2016-07-22T00:58:27.799Z,99.99
2016-07-22T00:58:57.110Z,99.99
2016-07-22T00:59:27.827Z,99.99
2016-07-22T00:59:57.852Z,99.99
2016-07-22T01:00:27.862Z,99.99
2016-07-22T01:00:57.892Z,99.99
2016-07-22T01:01:27.899Z,99.99
2016-07-22T01:01:57.916Z,99.99
2016-07-22T01:02:27.929Z,99.99
2016-07-22T01:02:57.957Z,99.99
2016-07-22T01:03:27.951Z,99.99
2016-07-22T01:03:57.264Z,99.99
2016-07-22T01:04:28.004Z,99.99
2016-07-22T01:04:58.007Z,99.99
2016-07-22T01:05:28.026Z,99.99
2016-07-22T01:05:58.038Z,99.99
2016-07-22T01:06:28.063Z,99.99
2016-07-22T01:06:58.070Z,99.99
2016-07-22T01:07:28.081Z,99.99
2016-07-22T01:07:58.097Z,99.99
2016-07-22T01:08:27.408Z,99.99
2016-07-22T01:08:58.124Z,99.99
2016-07-22T01:09:28.153Z,99.99
2016-07-22T01:09:58.168Z,99.99
2016-07-22T01:10:27.467Z,99.99
2016-07-22T01:10:58.192Z,99.99
2016-07-22T01:11:28.208Z,99.99
2016-07-22T01:11:58.227Z,99.99
2016-07-22T01:12:28.239Z,99.99
2016-07-22T01:12:58.263Z,99.99
2016-07-22T01:13:28.269Z,99.99
2016-07-22T01:13:58.298Z,99.99
2016-07-22T01:14:27.596Z,99.99
2016-07-22T01:14:58.339Z,99.99
2016-07-22T01:15:27.632Z,99.99
2016-07-22T01:15:58.350Z,99.99
2016-07-22T01:16:28.363Z,99.99
2016-07-22T01:16:58.377Z,99.99
2016-07-22T01:17:28.399Z,99.99
2016-07-22T01:17:58.416Z,99.99
2016-07-22T01:18:28.431Z,99.99
2016-07-22T01:18:58.442Z,99.99
2016-07-22T01:19:28.459Z,99.99
2016-07-22T01:19:58.477Z,99.99
2016-07-22T01:20:28.498Z,99.99
2016-07-22T01:20:58.508Z,99.99
2016-07-22T01:21:27.810Z,99.99
2016-07-22T01:21:58.539Z,99.99
2016-07-22T01:22:28.549Z,99.99
2016-07-22T01:22:58.568Z,99.99
2016-07-22T01:23:27.870Z,99.99
2016-07-22T01:23:58.603Z,99.99
2016-07-22T01:24:28.626Z,99.99
2016-07-22T01:24:58.640Z,99.99
2016-07-22T01:25:28.648Z,99.99
2016-07-22T01:25:58.661Z,99.99
2016-07-22T01:26:27.975Z,99.99
2016-07-22T01:26:58.694Z,99.99
2016-07-22T01:27:28.714Z,99.99
2016-07-22T01:27:58.722Z,99.99
2016-07-22T01:28:28.749Z,99.99
2016-07-22T01:28:58.056Z,99.99
2016-07-22T01:29:28.776Z,99.99
2016-07-22T01:29:58.800Z,99.99
2016-07-22T01:30:28.812Z,99.99
2016-07-22T01:30:58.819Z,99.99
2016-07-22T01:31:28.836Z,99.99
2016-07-22T01:31:58.863Z,99.99
2016-07-22T01:32:28.872Z,99.99
2016-07-22T01:32:58.883Z,99.99
2016-07-22T01:33:28.896Z,99.99
2016-07-22T01:33:58.921Z,99.99
2016-07-22T01:34:28.930Z,99.99
2016-07-22T01:34:58.240Z,99.99
2016-07-22T01:35:28.955Z,99.99
2016-07-22T01:35:58.978Z,99.99
2016-07-22T01:36:28.992Z,99.99
2016-07-22T01:36:59.005Z,99.99
2016-07-22T01:37:29.021Z,99.99
2016-07-22T01:37:59.033Z,99.99
2016-07-22T01:38:29.049Z,99.99
2016-07-22T01:38:59.070Z,99.99
2016-07-22T01:39:29.090Z,99.99
2016-07-22T01:39:58.399Z,99.99
2016-07-22T01:40:29.114Z,99.99
2016-07-22T01:40:59.129Z,99.99
2016-07-22T01:41:29.150Z,99.99
2016-07-22T01:41:59.176Z,99.99
2016-07-22T01:42:28.468Z,99.99
2016-07-22T01:42:59.191Z,99.99
2016-07-22T01:43:28.504Z,99.99
2016-07-22T01:43:59.232Z,99.99
2016-07-22T01:44:29.240Z,99.99
2016-07-22T01:44:59.260Z,99.99
2016-07-22T01:45:29.273Z,99.99
2016-07-22T01:45:59.300Z,99.99
2016-07-22T01:46:29.297Z,99.99
2016-07-22T01:46:59.316Z,99.99
2016-07-22T01:47:29.343Z,99.99
2016-07-22T01:47:59.359Z,99.99
2016-07-22T01:48:29.365Z,99.99
2016-07-22T01:48:58.680Z,99.99
2016-07-22T01:49:29.403Z,99.99
2016-07-22T01:49:59.421Z,99.99
2016-07-22T01:50:28.718Z,99.99
2016-07-22T01:50:59.442Z,99.99
2016-07-22T01:51:29.462Z,99.99
2016-07-22T01:51:59.481Z,99.99
2016-07-22T01:52:29.495Z,99.99
2016-07-22T01:52:59.511Z,99.99
2016-07-22T01:53:29.523Z,99.99
2016-07-22T01:53:59.541Z,99.99
2016-07-22T01:54:29.557Z,99.99
2016-07-22T01:54:59.576Z,99.99
2016-07-22T01:55:29.581Z,99.99
2016-07-22T01:55:59.614Z,99.99
2016-07-22T01:56:28.910Z,99.99
2016-07-22T01:56:59.632Z,99.99
2016-07-22T01:57:29.661Z,99.99
2016-07-22T01:57:59.674Z,99.99
2016-07-22T01:58:28.970Z,99.99
2016-07-22T01:58:59.706Z,99.99
2016-07-22T01:59:29.711Z,99.99
2016-07-22T01:59:59.014Z,99.99
2016-07-22T02:00:28.321Z,99.99
2016-07-22T02:00:59.754Z,99.99
2016-07-22T02:01:29.772Z,99.99
2016-07-22T02:01:59.786Z,99.99
2016-07-22T02:02:29.812Z,99.99
2016-07-22T02:02:59.822Z,99.99
2016-07-22T02:03:29.842Z,99.99
2016-07-22T02:03:59.157Z,99.99
2016-07-22T02:04:29.875Z,99.99
2016-07-22T02:04:59.885Z,99.99
2016-07-22T02:05:29.190Z,99.99
2016-07-22T02:05:59.212Z,99.99
2016-07-22T02:06:29.929Z,99.99
2016-07-22T02:06:59.957Z,99.99
2016-07-22T02:07:29.962Z,99.99
2016-07-22T02:07:59.991Z,99.99
2016-07-22T02:08:29.998Z,99.99
2016-07-22T02:09:00.006Z,99.99
2016-07-22T02:09:30.020Z,99.99
2016-07-22T02:10:00.041Z,99.99
2016-07-22T02:10:30.049Z,99.99
2016-07-22T02:11:00.063Z,99.99
2016-07-22T02:11:30.082Z,99.99
2016-07-22T02:12:00.111Z,99.99
2016-07-22T02:12:30.123Z,99.99
2016-07-22T02:13:00.133Z,99.99
2016-07-22T02:13:30.146Z,99.99
2016-07-22T02:14:00.168Z,99.99
2016-07-22T02:14:30.185Z,99.99
2016-07-22T02:15:00.199Z,99.99
2016-07-22T02:15:30.227Z,99.99
2016-07-22T02:16:00.232Z,99.99
2016-07-22T02:16:30.243Z,99.99
2016-07-22T02:16:59.555Z,99.99
2016-07-22T02:17:30.273Z,99.99
2016-07-22T02:18:00.292Z,99.99
2016-07-22T02:18:29.598Z,99.99
2016-07-22T02:19:00.320Z,99.99
2016-07-22T02:19:30.344Z,99.99
2016-07-22T02:20:00.353Z,99.99
2016-07-22T02:20:30.366Z,99.99
2016-07-22T02:21:00.401Z,99.99
2016-07-22T02:21:29.684Z,99.99
2016-07-22T02:22:00.417Z,99.99
2016-07-22T02:22:30.430Z,99.99
2016-07-22T02:23:00.439Z,99.99
2016-07-22T02:23:29.752Z,99.99
2016-07-22T02:24:00.502Z,99.99
2016-07-22T02:24:29.791Z,99.99
2016-07-22T02:25:00.507Z,99.99
2016-07-22T02:25:30.529Z,99.99
2016-07-22T02:26:00.543Z,99.99
2016-07-22T02:26:30.567Z,99.99
2016-07-22T02:27:00.571Z,99.99
2016-07-22T02:27:30.581Z,99.99
2016-07-22T02:27:59.895Z,99.99
2016-07-22T02:28:30.616Z,99.99
2016-07-22T02:29:00.635Z,99.99
2016-07-22T02:29:30.642Z,99.99
2016-07-22T02:30:00.664Z,99.99
2016-07-22T02:30:30.688Z,99.99
2016-07-22T02:30:59.991Z,99.99
2016-07-22T02:31:30.707Z,99.99
2016-07-22T02:32:00.019Z,99.99
2016-07-22T02:32:30.743Z,99.99
2016-07-22T02:33:00.043Z,99.99
2016-07-22T02:33:30.782Z,99.99
2016-07-22T02:34:00.096Z,99.99
2016-07-22T02:34:30.805Z,99.99
2016-07-22T02:34:59.396Z,99.99
2016-07-22T02:35:30.839Z,99.99
2016-07-22T02:36:00.852Z,99.99
2016-07-22T02:36:30.154Z,99.99
2016-07-22T02:37:00.884Z,99.99
2016-07-22T02:37:30.893Z,99.99
2016-07-22T02:38:00.909Z,99.99
2016-07-22T02:38:30.925Z,99.99
2016-07-22T02:39:00.943Z,99.99
2016-07-22T02:39:30.953Z,99.99
2016-07-22T02:40:00.977Z,99.99
2016-07-22T02:40:30.280Z,99.99
2016-07-22T02:41:00.294Z,99.99
2016-07-22T02:41:31.023Z,99.99
2016-07-22T02:42:01.045Z,99.99
2016-07-22T02:42:31.057Z,99.99
2016-07-22T02:43:01.065Z,99.99
2016-07-22T02:43:30.369Z,99.99
2016-07-22T02:44:00.390Z,99.99
2016-07-22T02:44:31.117Z,99.99
2016-07-22T02:45:01.129Z,99.99
2016-07-22T02:45:31.143Z,99.99
2016-07-22T02:46:00.453Z,99.99
2016-07-22T02:46:31.176Z,99.99
2016-07-22T02:47:01.188Z,99.99
2016-07-22T02:47:30.501Z,99.99
2016-07-22T02:48:01.248Z,99.99
2016-07-22T02:48:31.235Z,99.99
2016-07-22T02:49:01.252Z,99.99
2016-07-22T02:49:31.270Z,99.99
2016-07-22T02:50:01.292Z,99.99
2016-07-22T02:50:31.293Z,99.99
2016-07-22T02:51:01.314Z,99.99
2016-07-22T02:51:30.615Z,99.99
2016-07-22T02:52:01.344Z,99.99
2016-07-22T02:52:31.363Z,99.99
2016-07-22T02:53:00.673Z,99.99
2016-07-22T02:53:31.393Z,99.99
2016-07-22T02:54:00.909Z,99.99
2016-07-22T02:54:30.714Z,99.99
2016-07-22T02:55:01.439Z,99.99
2016-07-22T02:55:31.449Z,99.99
2016-07-22T02:56:01.479Z,99.99
2016-07-22T02:56:31.490Z,99.99
2016-07-22T02:57:00.791Z,99.99
2016-07-22T02:57:31.520Z,99.99
2016-07-22T02:58:01.537Z,99.99
2016-07-22T02:58:31.552Z,99.99
2016-07-22T02:59:01.558Z,99.99
2016-07-22T02:59:31.584Z,99.99
2016-07-22T03:00:01.607Z,99.99
2016-07-22T03:00:31.613Z,99.99
2016-07-22T03:01:01.625Z,99.99
2016-07-22T03:01:31.644Z,99.99
2016-07-22T03:02:01.679Z,99.99
2016-07-22T03:02:30.958Z,99.99
2016-07-22T03:03:01.694Z,99.99
2016-07-22T03:03:30.995Z,99.99
2016-07-22T03:04:01.736Z,99.99
2016-07-22T03:04:31.726Z,99.99
2016-07-22T03:05:01.754Z,99.99
2016-07-22T03:05:31.767Z,99.99
2016-07-22T03:06:01.795Z,99.99
2016-07-22T03:06:31.798Z,99.99
2016-07-22T03:07:01.815Z,99.99
2016-07-22T03:07:31.826Z,99.99
2016-07-22T03:08:01.135Z,99.99
2016-07-22T03:08:31.859Z,99.99
2016-07-22T03:09:01.876Z,99.99
2016-07-22T03:09:31.896Z,99.99
2016-07-22T03:10:01.208Z,99.99
2016-07-22T03:10:31.213Z,99.99
2016-07-22T03:11:01.937Z,99.99
2016-07-22T03:11:31.251Z,99.99
2016-07-22T03:12:01.986Z,99.99
2016-07-22T03:12:31.986Z,99.99
2016-07-22T03:13:02.005Z,99.99
2016-07-22T03:13:32.022Z,99.99
2016-07-22T03:14:02.032Z,99.99
2016-07-22T03:14:32.046Z,99.99
2016-07-22T03:15:02.068Z,99.99
2016-07-22T03:15:31.375Z,99.99
2016-07-22T03:16:01.382Z,99.99
2016-07-22T03:16:31.397Z,99.99
2016-07-22T03:17:02.127Z,99.99
2016-07-22T03:17:30.743Z,99.99
2016-07-22T03:18:02.163Z,99.99
2016-07-22T03:18:32.169Z,99.99
2016-07-22T03:19:01.481Z,99.99
2016-07-22T03:19:32.216Z,99.99
2016-07-22T03:20:01.506Z,99.99
2016-07-22T03:20:31.537Z,99.99
2016-07-22T03:21:01.543Z,99.99
2016-07-22T03:21:31.555Z,99.99
2016-07-22T03:22:02.290Z,99.99
2016-07-22T03:22:32.301Z,99.99
2016-07-22T03:23:02.318Z,99.99
2016-07-22T03:23:32.325Z,99.99
2016-07-22T03:24:02.346Z,99.99
2016-07-22T03:24:32.369Z,99.99
2016-07-22T03:25:02.370Z,99.99
2016-07-22T03:25:32.395Z,99.99
2016-07-22T03:26:02.407Z,99.99
2016-07-22T03:26:32.425Z,99.99
2016-07-22T03:27:02.442Z,99.99
2016-07-22T03:27:31.740Z,99.99
2016-07-22T03:28:02.472Z,99.99
2016-07-22T03:28:32.494Z,99.99
2016-07-22T03:29:02.516Z,99.99
2016-07-22T03:29:31.807Z,99.99
2016-07-22T03:30:02.528Z,99.99
2016-07-22T03:30:32.541Z,99.99
2016-07-22T03:31:02.572Z,99.99
2016-07-22T03:31:32.574Z,99.99
2016-07-22T03:32:01.885Z,99.99
2016-07-22T03:32:32.604Z,99.99
2016-07-22T03:33:02.627Z,99.99
2016-07-22T03:33:32.636Z,99.99
2016-07-22T03:34:01.946Z,99.99
2016-07-22T03:34:32.678Z,99.99
2016-07-22T03:35:01.977Z,99.99
2016-07-22T03:35:32.692Z,99.99
2016-07-22T03:36:02.719Z,99.99
2016-07-22T03:36:32.727Z,99.99
2016-07-22T03:37:01.327Z,99.99
2016-07-22T03:37:32.760Z,99.99
2016-07-22T03:38:02.779Z,99.99
2016-07-22T03:38:32.791Z,99.99
2016-07-22T03:39:02.815Z,99.99
2016-07-22T03:39:32.828Z,99.99
2016-07-22T03:40:02.847Z,99.99
2016-07-22T03:40:32.863Z,99.99
2016-07-22T03:41:02.872Z,99.99
2016-07-22T03:41:32.888Z,99.99
2016-07-22T03:42:02.906Z,99.99
2016-07-22T03:42:32.205Z,99.99
2016-07-22T03:43:02.928Z,99.99
2016-07-22T03:43:32.242Z,99.99
2016-07-22T03:44:02.256Z,99.99
2016-07-22T03:44:32.973Z,99.99
2016-07-22T03:45:03.004Z,99.99
2016-07-22T03:45:33.013Z,99.99
2016-07-22T03:46:03.027Z,99.99
2016-07-22T03:46:33.042Z,99.99
2016-07-22T03:47:03.058Z,99.99
2016-07-22T03:47:33.068Z,99.99
2016-07-22T03:48:03.076Z,99.99
2016-07-22T03:48:33.103Z,99.99
2016-07-22T03:49:03.117Z,99.99
2016-07-22T03:49:33.134Z,99.99
2016-07-22T03:50:03.172Z,99.99
2016-07-22T03:50:33.158Z,99.99
2016-07-22T03:51:03.177Z,99.99
2016-07-22T03:51:33.189Z,99.99
2016-07-22T03:52:03.218Z,99.99
2016-07-22T03:52:33.222Z,99.99
2016-07-22T03:53:03.239Z,99.99
2016-07-22T03:53:33.248Z,99.99
2016-07-22T03:54:03.269Z,99.99
2016-07-22T03:54:33.288Z,99.99
2016-07-22T03:55:03.294Z,99.99
2016-07-22T03:55:33.316Z,99.99
2016-07-22T03:56:03.330Z,99.99
2016-07-22T03:56:33.356Z,99.99
2016-07-22T03:57:03.356Z,99.99
2016-07-22T03:57:33.374Z,99.99
2016-07-22T03:58:01.982Z,99.99
2016-07-22T03:58:33.406Z,99.99
2016-07-22T03:59:03.420Z,99.99
2016-07-22T03:59:32.737Z,99.99
2016-07-22T04:00:03.473Z,99.99
2016-07-22T04:00:33.469Z,99.99
2016-07-22T04:01:03.490Z,99.99
2016-07-22T04:01:32.787Z,99.99
2016-07-22T04:02:03.521Z,99.99
2016-07-22T04:02:33.530Z,99.99
2016-07-22T04:03:03.548Z,99.99
2016-07-22T04:03:32.851Z,99.99
2016-07-22T04:04:03.583Z,99.99
2016-07-22T04:04:33.593Z,99.99
2016-07-22T04:05:02.200Z,99.99
2016-07-22T04:05:32.918Z,99.99
2016-07-22T04:06:03.646Z,99.99
2016-07-22T04:06:33.667Z,99.99
2016-07-22T04:07:03.680Z,99.99
2016-07-22T04:07:33.700Z,99.99
2016-07-22T04:08:03.703Z,99.99
2016-07-22T04:08:33.012Z,99.99
2016-07-22T04:09:03.743Z,99.99
2016-07-22T04:09:33.751Z,99.99
2016-07-22T04:10:03.061Z,99.99
2016-07-22T04:10:33.771Z,99.99
2016-07-22T04:11:03.797Z,99.99
2016-07-22T04:11:33.808Z,99.99
2016-07-22T04:12:03.821Z,99.99
2016-07-22T04:12:33.850Z,99.99
2016-07-22T04:13:03.851Z,99.99
2016-07-22T04:13:33.869Z,99.99
2016-07-22T04:14:03.183Z,99.99
2016-07-22T04:14:33.899Z,99.99
2016-07-22T04:15:03.924Z,99.99
2016-07-22T04:15:33.932Z,99.99
2016-07-22T04:16:03.964Z,99.99
2016-07-22T04:16:33.969Z,99.99
2016-07-22T04:17:03.985Z,99.99
2016-07-22T04:17:34.002Z,99.99
2016-07-22T04:18:04.013Z,99.99
2016-07-22T04:18:34.021Z,99.99
2016-07-22T04:19:04.049Z,99.99
2016-07-22T04:19:34.052Z,99.99
2016-07-22T04:20:04.081Z,99.99
2016-07-22T04:20:34.096Z,99.99
2016-07-22T04:21:04.106Z,99.99
2016-07-22T04:21:34.122Z,99.99
2016-07-22T04:22:04.133Z,99.99
2016-07-22T04:22:34.173Z,99.99
2016-07-22T04:23:04.167Z,99.99
2016-07-22T04:23:34.180Z,99.99
2016-07-22T04:24:03.501Z,99.99
2016-07-22T04:24:33.508Z,99.99
2016-07-22T04:25:04.229Z,99.99
2016-07-22T04:25:34.250Z,99.99
2016-07-22T04:26:04.262Z,99.99
2016-07-22T04:26:33.566Z,99.99
2016-07-22T04:27:04.289Z,99.99
2016-07-22T04:27:34.303Z,99.99
2016-07-22T04:28:04.322Z,99.99
2016-07-22T04:28:34.332Z,99.99
2016-07-22T04:29:04.349Z,99.99
2016-07-22T04:29:34.373Z,99.99
2016-07-22T04:30:04.384Z,99.99
2016-07-22T04:30:33.695Z,99.99
2016-07-22T04:31:04.413Z,99.99
2016-07-22T04:31:34.439Z,99.99
2016-07-22T04:32:03.749Z,99.99
2016-07-22T04:32:34.459Z,99.99
2016-07-22T04:33:04.481Z,99.99
2016-07-22T04:33:33.784Z,99.99
2016-07-22T04:34:04.510Z,99.99
2016-07-22T04:34:34.533Z,99.99
2016-07-22T04:35:04.548Z,99.99
2016-07-22T04:35:33.848Z,99.99
2016-07-22T04:36:04.589Z,99.99
2016-07-22T04:36:33.880Z,99.99
2016-07-22T04:37:04.605Z,99.99
2016-07-22T04:37:33.907Z,99.99
2016-07-22T04:38:04.639Z,99.99
2016-07-22T04:38:34.651Z,99.99
2016-07-22T04:39:04.681Z,99.99
2016-07-22T04:39:34.678Z,99.99
2016-07-22T04:40:04.713Z,99.99
2016-07-22T04:40:34.719Z,99.99
2016-07-22T04:41:04.733Z,99.99
2016-07-22T04:41:34.034Z,99.99
2016-07-22T04:42:04.766Z,99.99
2016-07-22T04:42:33.359Z,99.99
2016-07-22T04:43:04.091Z,99.99
2016-07-22T04:43:34.812Z,99.99
2016-07-22T04:44:04.829Z,99.99
2016-07-22T04:44:34.844Z,99.99
2016-07-22T04:45:04.152Z,99.99
2016-07-22T04:45:34.164Z,99.99
2016-07-22T04:46:04.185Z,99.99
2016-07-22T04:46:34.902Z,99.99
2016-07-22T04:47:04.922Z,99.99
2016-07-22T04:47:34.931Z,99.99
2016-07-22T04:48:04.957Z,99.99
2016-07-22T04:48:34.261Z,99.99
2016-07-22T04:49:04.981Z,99.99
2016-07-22T04:49:34.290Z,99.99
2016-07-22T04:50:05.022Z,99.99
2016-07-22T04:50:35.028Z,99.99
2016-07-22T04:51:05.050Z,99.99
2016-07-22T04:51:35.054Z,99.99
2016-07-22T04:52:05.071Z,99.99
2016-07-22T04:52:35.101Z,99.99
2016-07-22T04:53:05.110Z,99.99
2016-07-22T04:53:35.126Z,99.99
2016-07-22T04:54:05.145Z,99.99
2016-07-22T04:54:35.154Z,99.99
2016-07-22T04:55:05.194Z,99.99
2016-07-22T04:55:35.186Z,99.99
2016-07-22T04:56:05.220Z,99.99
2016-07-22T04:56:34.512Z,99.99
2016-07-22T04:57:05.237Z,99.99
2016-07-22T04:57:35.250Z,99.99
2016-07-22T04:58:05.285Z,99.99
2016-07-22T04:58:35.281Z,99.99
2016-07-22T04:59:05.307Z,99.99
2016-07-22T04:59:35.310Z,99.99
2016-07-22T05:00:05.332Z,99.99
2016-07-22T05:00:35.351Z,99.99
2016-07-22T05:01:05.365Z,99.99
2016-07-22T05:01:35.397Z,99.99
2016-07-22T05:02:05.402Z,99.99
2016-07-22T05:02:35.416Z,99.99
2016-07-22T05:03:05.432Z,99.99
2016-07-22T05:03:35.444Z,99.99
2016-07-22T05:04:05.461Z,99.99
2016-07-22T05:04:35.475Z,99.99
2016-07-22T05:05:05.491Z,99.99
2016-07-22T05:05:35.514Z,99.99
2016-07-22T05:06:05.535Z,99.99
2016-07-22T05:06:35.535Z,99.99
2016-07-22T05:07:05.561Z,99.99
2016-07-22T05:07:34.867Z,99.99
2016-07-22T05:08:04.890Z,99.99
2016-07-22T05:08:35.600Z,99.99
2016-07-22T05:09:05.622Z,99.99
2016-07-22T05:09:35.633Z,99.99
2016-07-22T05:10:05.662Z,99.99
2016-07-22T05:10:35.666Z,99.99
2016-07-22T05:11:05.682Z,99.99
2016-07-22T05:11:35.694Z,99.99
2016-07-22T05:12:05.715Z,99.99
2016-07-22T05:12:35.732Z,99.99
2016-07-22T05:13:05.750Z,99.99
2016-07-22T05:13:35.758Z,99.99
2016-07-22T05:14:05.785Z,99.99
2016-07-22T05:14:35.796Z,99.99
2016-07-22T05:15:05.103Z,99.99
2016-07-22T05:15:35.824Z,99.99
2016-07-22T05:16:05.846Z,99.99
2016-07-22T05:16:35.872Z,99.99
2016-07-22T05:17:05.164Z,99.99
2016-07-22T05:17:35.895Z,99.99
2016-07-22T05:18:05.901Z,99.99
2016-07-22T05:18:35.924Z,99.99
2016-07-22T05:19:05.943Z,99.99
2016-07-22T05:19:35.959Z,99.99
2016-07-22T05:20:05.263Z,99.99
2016-07-22T05:20:36.004Z,99.99
2016-07-22T05:21:06.003Z,99.99
2016-07-22T05:21:36.022Z,99.99
2016-07-22T05:22:06.034Z,99.99
2016-07-22T05:22:34.635Z,99.99
2016-07-22T05:23:06.063Z,99.99
2016-07-22T05:23:36.092Z,99.99
2016-07-22T05:24:06.109Z,99.99
2016-07-22T05:24:36.126Z,99.99
2016-07-22T05:25:06.138Z,99.99
2016-07-22T05:25:36.148Z,99.99
2016-07-22T05:26:06.168Z,99.99
2016-07-22T05:26:36.183Z,99.99
2016-07-22T05:27:06.197Z,99.99
2016-07-22T05:27:36.217Z,99.99
2016-07-22T05:28:06.238Z,99.99
2016-07-22T05:28:36.243Z,99.99
2016-07-22T05:29:06.265Z,99.99
2016-07-22T05:29:36.277Z,99.99
2016-07-22T05:30:06.303Z,99.99
2016-07-22T05:30:35.598Z,99.99
2016-07-22T05:31:06.326Z,99.99
2016-07-22T05:31:36.340Z,99.99
2016-07-22T05:32:06.363Z,99.99
2016-07-22T05:32:36.374Z,99.99
2016-07-22T05:33:06.394Z,99.99
2016-07-22T05:33:36.412Z,99.79
2016-07-22T05:34:06.424Z,99.99
2016-07-22T05:34:35.732Z,99.88
2016-07-22T05:35:06.453Z,99.98
2016-07-22T05:35:36.468Z,99.69
2016-07-22T05:36:06.488Z,99.69
2016-07-22T05:36:36.500Z,99.02
2016-07-22T05:37:05.806Z,99.4
2016-07-22T05:37:35.836Z,98.73
2016-07-22T05:38:06.558Z,99.11
2016-07-22T05:38:36.569Z,98.44
2016-07-22T05:39:06.584Z,98.73
2016-07-22T05:39:36.597Z,98.92
2016-07-22T05:40:06.624Z,98.78
2016-07-22T05:40:36.858Z,98.2
2016-07-22T05:41:05.239Z,97.91
2016-07-22T05:41:36.659Z,98.68
2016-07-22T05:42:06.700Z,98.44
2016-07-22T05:42:36.696Z,98.54
2016-07-22T05:43:06.724Z,98.2
2016-07-22T05:43:36.725Z,98.3
2016-07-22T05:44:06.761Z,97.81
2016-07-22T05:44:36.758Z,98.49
2016-07-22T05:45:06.782Z,98.2
2016-07-22T05:45:36.792Z,98
2016-07-22T05:46:05.390Z,97.91
2016-07-22T05:46:36.832Z,97.24
2016-07-22T05:47:06.841Z,97.33
2016-07-22T05:47:36.862Z,97.42
2016-07-22T05:48:06.878Z,97.33
2016-07-22T05:48:36.888Z,97.42
2016-07-22T05:49:06.907Z,97.24
2016-07-22T05:49:36.919Z,97.33
2016-07-22T05:50:06.945Z,97.42
2016-07-22T05:50:36.964Z,96.84
2016-07-22T05:51:06.968Z,96.26
2016-07-22T05:51:36.982Z,97.04
2016-07-22T05:52:07.011Z,96.94
2016-07-22T05:52:37.018Z,96.84
2016-07-22T05:53:07.051Z,97.24
2016-07-22T05:53:36.348Z,96.66
2016-07-22T05:54:06.365Z,96.46
2016-07-22T05:54:37.072Z,96.75
2016-07-22T05:55:07.095Z,96.66
2016-07-22T05:55:37.116Z,96.84
2016-07-22T05:56:07.145Z,96.46
2016-07-22T05:56:37.138Z,96.36
2016-07-22T05:57:07.169Z,96.75
2016-07-22T05:57:37.180Z,96.84
2016-07-22T05:58:07.190Z,96.8
2016-07-22T05:58:37.214Z,96.8
2016-07-22T05:59:07.229Z,97.09
2016-07-22T05:59:37.249Z,96.8
2016-07-22T06:00:07.260Z,97.09
2016-07-22T06:00:36.576Z,96.51
2016-07-22T06:01:07.295Z,96.31
2016-07-22T06:01:37.328Z,95.93
2016-07-22T06:02:07.325Z,96.56
2016-07-22T06:02:37.345Z,96.36
2016-07-22T06:03:07.355Z,96.22
2016-07-22T06:03:36.668Z,96.51
2016-07-22T06:04:07.389Z,96.12
2016-07-22T06:04:37.403Z,95.83
2016-07-22T06:05:06.717Z,95.54
2016-07-22T06:05:37.446Z,95.93
2016-07-22T06:06:07.456Z,95.54
2016-07-22T06:06:37.471Z,95.93
2016-07-22T06:07:07.489Z,96.41
2016-07-22T06:07:37.499Z,95.83
2016-07-22T06:08:07.526Z,95.83
2016-07-22T06:08:37.541Z,95.64
2016-07-22T06:09:07.550Z,96.22
2016-07-22T06:09:36.862Z,95.83
2016-07-22T06:10:07.598Z,95.93
2016-07-22T06:10:37.601Z,96.22
2016-07-22T06:11:07.619Z,96.12
2016-07-22T06:11:37.630Z,96.51
2016-07-22T06:12:07.659Z,96.31
2016-07-22T06:12:36.975Z,96.89
2016-07-22T06:13:07.675Z,96.41
2016-07-22T06:13:37.705Z,95.64
2016-07-22T06:14:07.720Z,96.12
2016-07-22T06:14:37.740Z,95.83
2016-07-22T06:15:07.748Z,96.8
2016-07-22T06:15:37.054Z,96.8
2016-07-22T06:16:07.784Z,95.78
2016-07-22T06:16:37.796Z,95.54
2016-07-22T06:17:07.818Z,95.83
2016-07-22T06:17:37.125Z,96.31
2016-07-22T06:18:07.845Z,96.41
2016-07-22T06:18:37.880Z,96.41
2016-07-22T06:19:07.884Z,96.36
2016-07-22T06:19:37.895Z,96.36
2016-07-22T06:20:07.199Z,96.17
2016-07-22T06:20:37.931Z,95.68
2016-07-22T06:21:07.944Z,95.4
2016-07-22T06:21:37.954Z,95.49
2016-07-22T06:22:07.988Z,95.78
2016-07-22T06:22:37.999Z,95.78
2016-07-22T06:23:08.006Z,95.68
2016-07-22T06:23:38.034Z,94.43
2016-07-22T06:24:08.042Z,94.72
2016-07-22T06:24:38.061Z,95.2
2016-07-22T06:25:08.077Z,94.53
2016-07-22T06:25:38.089Z,94.82
2016-07-22T06:26:08.102Z,94.72
2016-07-22T06:26:38.120Z,95.1
2016-07-22T06:27:08.141Z,95.4